Time;durP1;ratioP1;P1;durP2;ratioP2;P2;SDS_P1;SDS_P2;PMS_P1;PMS_P2;Temp;Humidity;BMP_temperature;BMP_pressure;BME280_temperature;BME280_humidity;BME280_pressure;Samples;Min_cycle;Max_cycle;Signal;HPM_P1;HPM_P2
2023/01/23 00:01:31;;;;;;;11.15;5.97;;;2.60;99.30;;;;;;6219234;23;20054;-78
2023/01/23 00:03:59;;;;;;;12.55;5.95;;;2.60;99.30;;;;;;6219542;23;20020;-76
2023/01/23 00:06:27;;;;;;;8.90;5.25;;;2.60;99.30;;;;;;6219226;23;20075;-77
2023/01/23 00:08:55;;;;;;;10.57;5.35;;;2.50;99.30;;;;;;6219570;23;20103;-77
2023/01/23 00:11:25;;;;;;;8.57;4.47;;;2.60;99.30;;;;;;6246348;23;20035;-77
2023/01/23 00:13:53;;;;;;;10.68;5.05;;;2.60;99.30;;;;;;6219484;23;20024;-77
2023/01/23 00:16:24;;;;;;;10.65;5.80;;;2.60;99.30;;;;;;6194854;23;20349;-77
2023/01/23 00:18:51;;;;;;;12.20;5.07;;;2.60;99.30;;;;;;6194188;23;20020;-78
2023/01/23 00:21:24;;;;;;;10.50;5.10;;;2.60;99.40;;;;;;6244781;23;20098;-78
2023/01/23 00:23:56;;;;;;;8.80;4.55;;;2.50;99.30;;;;;;6244454;23;20020;-79
2023/01/23 00:26:29;;;;;;;9.15;4.65;;;2.50;99.40;;;;;;6219058;23;20107;-78
2023/01/23 00:28:56;;;;;;;8.98;4.80;;;2.50;99.40;;;;;;6244512;23;20024;-78
2023/01/23 00:31:29;;;;;;;9.38;4.70;;;2.50;99.40;;;;;;6169843;23;20024;-78
2023/01/23 00:33:59;;;;;;;9.88;4.70;;;2.50;99.40;;;;;;6244251;23;20024;-78
2023/01/23 00:36:33;;;;;;;8.70;4.82;;;2.50;99.40;;;;;;6219106;23;20024;-78
2023/01/23 00:39:01;;;;;;;9.40;4.70;;;2.50;99.40;;;;;;6244397;23;20077;-78
2023/01/23 00:41:28;;;;;;;10.65;5.53;;;2.60;99.50;;;;;;6219025;23;20023;-78
2023/01/23 00:43:55;;;;;;;9.63;4.80;;;2.50;99.50;;;;;;6219271;23;20028;-78
2023/01/23 00:46:22;;;;;;;7.97;4.72;;;2.50;99.50;;;;;;6169226;23;20073;-78
2023/01/23 00:48:50;;;;;;;10.23;5.40;;;2.50;99.50;;;;;;6169566;23;20021;-78
2023/01/23 00:51:18;;;;;;;10.65;5.40;;;2.50;99.50;;;;;;6194252;23;20026;-77
2023/01/23 00:53:45;;;;;;;9.02;4.65;;;2.50;99.50;;;;;;6218688;23;20020;-78
2023/01/23 00:56:12;;;;;;;10.50;4.97;;;2.50;99.50;;;;;;6244305;23;20447;-78
2023/01/23 00:58:40;;;;;;;9.43;5.30;;;2.50;99.50;;;;;;6169580;23;20020;-78
2023/01/23 01:01:12;;;;;;;11.52;4.82;;;2.50;99.50;;;;;;6194534;23;20073;-77
2023/01/23 01:03:40;;;;;;;8.32;4.13;;;2.50;99.50;;;;;;6218778;23;20020;-78
2023/01/23 01:06:07;;;;;;;11.30;5.25;;;2.50;99.60;;;;;;6224029;22;20441;-77
2023/01/23 01:08:34;;;;;;;12.23;5.38;;;2.50;99.60;;;;;;6224620;22;20020;-77
2023/01/23 01:11:01;;;;;;;9.50;4.60;;;2.50;99.50;;;;;;6224123;22;20353;-77
2023/01/23 01:13:30;;;;;;;13.43;6.17;;;2.50;99.60;;;;;;6199322;22;20099;-77
2023/01/23 01:15:56;;;;;;;9.75;5.13;;;2.50;99.60;;;;;;6199325;22;20016;-77
2023/01/23 01:18:24;;;;;;;13.05;6.68;;;2.50;99.60;;;;;;6199318;22;20020;-77
2023/01/23 01:20:51;;;;;;;12.32;6.07;;;2.50;99.50;;;;;;6224171;22;20016;-77
2023/01/23 01:23:19;;;;;;;13.47;6.93;;;2.50;99.60;;;;;;6199808;22;20012;-77
2023/01/23 01:25:46;;;;;;;14.60;7.05;;;2.50;99.60;;;;;;6223720;22;20031;-78
2023/01/23 01:28:13;;;;;;;14.80;6.57;;;2.50;99.50;;;;;;6249290;22;20027;-77
2023/01/23 01:30:41;;;;;;;10.07;5.20;;;2.50;99.50;;;;;;6224600;22;20011;-78
2023/01/23 01:33:08;;;;;;;10.60;5.28;;;2.60;99.60;;;;;;6223873;22;20046;-78
2023/01/23 01:35:40;;;;;;;11.73;6.22;;;2.60;99.60;;;;;;6175129;22;20442;-78
2023/01/23 01:38:08;;;;;;;14.25;6.65;;;2.60;99.60;;;;;;6223964;22;20024;-78
2023/01/23 01:40:36;;;;;;;17.00;7.47;;;2.60;99.60;;;;;;6224085;22;20023;-78
2023/01/23 01:43:08;;;;;;;13.40;5.95;;;2.60;99.60;;;;;;6249471;22;20453;-78
2023/01/23 01:46:13;;;;;;;16.75;7.07;;;2.60;99.60;;;;;;6224093;22;20027;-78
2023/01/23 01:48:55;;;;;;;12.13;6.63;;;2.60;99.60;;;;;;6223873;22;20020;-78
2023/01/23 01:51:28;;;;;;;15.27;7.43;;;2.60;99.60;;;;;;6249289;22;20022;-77
2023/01/23 01:54:10;;;;;;;10.98;6.07;;;2.60;99.60;;;;;;6248960;22;20016;-78
2023/01/23 01:56:52;;;;;;;10.77;5.47;;;2.60;99.60;;;;;;6223818;22;20019;-78
2023/01/23 01:59:20;;;;;;;;;;;2.60;99.60;;;;;;6224365;22;20027;-78
2023/01/23 02:01:55;;;;;;;14.15;7.93;;;2.60;99.60;;;;;;6248847;22;19915;-78
2023/01/23 02:04:25;;;;;;;16.83;7.35;;;2.60;99.60;;;;;;6223572;22;20082;-78
2023/01/23 02:06:54;;;;;;;12.93;6.43;;;2.60;99.60;;;;;;6223686;22;20360;-78
2023/01/23 02:09:25;;;;;;;11.55;5.35;;;2.60;99.60;;;;;;6224077;22;20019;-78
2023/01/23 02:11:53;;;;;;;10.27;5.78;;;2.60;99.60;;;;;;6248769;22;20046;-78
2023/01/23 02:14:23;;;;;;;12.82;5.38;;;2.60;99.60;;;;;;6225954;22;20015;-78
2023/01/23 02:16:51;;;;;;;9.60;4.68;;;2.60;99.60;;;;;;6226382;22;20102;-77
2023/01/23 02:19:33;;;;;;;11.40;5.55;;;2.60;99.60;;;;;;6277802;22;20087;-79
2023/01/23 02:22:19;;;;;;;11.18;5.07;;;2.60;99.60;;;;;;6250968;22;20442;-79
2023/01/23 02:25:21;;;;;;;12.52;6.18;;;2.70;99.70;;;;;;6225800;22;20519;-80
2023/01/23 02:27:51;;;;;;;9.02;4.60;;;2.70;99.60;;;;;;6203893;22;20060;-79
2023/01/23 02:30:21;;;;;;;11.02;5.35;;;2.60;99.70;;;;;;6201353;22;20016;-79
2023/01/23 02:32:51;;;;;;;10.48;4.10;;;2.70;99.70;;;;;;6201796;22;20022;-79
2023/01/23 02:35:30;;;;;;;9.82;4.85;;;2.70;99.70;;;;;;6225752;22;20020;-79
2023/01/23 02:38:04;;;;;;;9.50;4.70;;;2.70;99.70;;;;;;6226939;22;20016;-79
2023/01/23 02:40:37;;;;;;;12.90;4.93;;;2.70;99.70;;;;;;6225869;22;20019;-79
2023/01/23 02:43:14;;;;;;;8.57;4.30;;;2.70;99.70;;;;;;6226234;22;20122;-80
2023/01/23 02:45:50;;;;;;;8.98;4.05;;;2.70;99.70;;;;;;6227639;22;20027;-79
2023/01/23 02:48:19;;;;;;;10.02;4.68;;;2.70;99.70;;;;;;6201823;22;20081;-79
2023/01/23 02:50:47;;;;;;;6.90;3.45;;;2.70;99.70;;;;;;6176369;22;20394;-80
2023/01/23 02:53:14;;;;;;;10.55;4.55;;;2.80;99.70;;;;;;6250513;22;20106;-79
2023/01/23 02:55:42;;;;;;;8.48;3.85;;;2.80;99.70;;;;;;6176170;22;20027;-79
2023/01/23 03:00:55;;;;;;;10.05;4.30;;;2.80;99.70;;;;;;6250233;22;20070;-80
2023/01/23 03:03:25;;;;;;;9.43;4.32;;;2.80;99.70;;;;;;6225523;22;20019;-80
2023/01/23 03:05:58;;;;;;;10.18;5.18;;;2.80;99.70;;;;;;6175894;22;20045;-80
2023/01/23 03:08:32;;;;;;;10.05;4.72;;;2.80;99.70;;;;;;6250363;22;20054;-80
2023/01/23 03:11:00;;;;;;;11.70;5.15;;;2.80;99.70;;;;;;6201908;22;20457;-80
2023/01/23 03:13:27;;;;;;;9.10;4.97;;;2.80;99.70;;;;;;6250442;22;20016;-80
2023/01/23 03:15:56;;;;;;;11.20;5.05;;;2.80;99.70;;;;;;6176098;22;20043;-79
2023/01/23 03:18:26;;;;;;;10.90;5.25;;;2.80;99.70;;;;;;6225378;22;20020;-79
2023/01/23 03:20:53;;;;;;;8.05;4.53;;;2.80;99.70;;;;;;6225137;22;20385;-79
2023/01/23 03:23:25;;;;;;;7.65;4.20;;;2.80;99.70;;;;;;6176930;22;20023;-79
2023/01/23 03:25:57;;;;;;;10.90;4.20;;;2.80;99.70;;;;;;6225145;22;20023;-79
2023/01/23 03:31:15;;;;;;;10.35;4.57;;;2.90;99.70;;;;;;6229138;22;20027;-79
2023/01/23 03:33:43;;;;;;;9.13;4.13;;;2.80;99.70;;;;;;6225106;22;20030;-78
2023/01/23 03:36:12;;;;;;;9.68;4.28;;;2.80;99.70;;;;;;6225520;22;20094;-78
2023/01/23 03:41:23;;;;;;;13.38;5.40;;;2.80;99.70;;;;;;6225569;22;20346;-78
2023/01/23 03:41:27;;;;;;;7.88;3.95;;;2.80;99.70;;;;;;6250187;22;20077;-79
2023/01/23 03:43:59;;;;;;;8.73;4.45;;;2.80;99.70;;;;;;6202560;22;20327;-79
2023/01/23 03:46:27;;;;;;;10.40;4.65;;;2.80;99.70;;;;;;6225084;22;20027;-79
2023/01/23 03:48:54;;;;;;;10.13;5.53;;;2.80;99.70;;;;;;6249801;22;20035;-79
2023/01/23 03:51:21;;;;;;;11.35;5.55;;;2.80;99.70;;;;;;6200156;22;20099;-79
2023/01/23 03:53:49;;;;;;;10.93;4.82;;;2.80;99.80;;;;;;6200430;22;20499;-78
2023/01/23 03:56:16;;;;;;;12.98;5.80;;;2.80;99.80;;;;;;6175459;22;20046;-78
2023/01/23 03:58:42;;;;;;;9.93;5.15;;;2.80;99.80;;;;;;6199979;22;20024;-78
2023/01/23 04:01:12;;;;;;;9.98;4.90;;;2.80;99.80;;;;;;6224972;22;20023;-78
2023/01/23 04:03:42;;;;;;;11.63;5.40;;;2.80;99.80;;;;;;6201318;22;20102;-78
2023/01/23 04:06:09;;;;;;;11.07;4.85;;;2.80;99.80;;;;;;6249859;22;20026;-78
2023/01/23 04:08:37;;;;;;;9.38;4.55;;;2.90;99.80;;;;;;6224613;22;20089;-79
2023/01/23 04:11:07;;;;;;;10.05;4.47;;;2.90;99.80;;;;;;6249696;22;20357;-79
2023/01/23 04:13:34;;;;;;;12.23;5.45;;;2.90;99.80;;;;;;6224560;22;20061;-78
2023/01/23 04:16:03;;;;;;;12.30;6.13;;;2.80;99.70;;;;;;6200005;22;20016;-78
2023/01/23 04:18:30;;;;;;;13.85;6.88;;;2.80;99.70;;;;;;6249870;22;20019;-80
2023/01/23 04:20:58;;;;;;;11.98;6.10;;;2.80;99.80;;;;;;6224835;22;20020;-77
2023/01/23 04:23:25;;;;;;;11.35;5.78;;;2.80;99.80;;;;;;6224975;22;20027;-77
2023/01/23 04:25:54;;;;;;;9.50;4.93;;;2.80;99.80;;;;;;6199843;22;20102;-76
2023/01/23 04:28:21;;;;;;;12.63;6.35;;;2.80;99.80;;;;;;6250064;22;20089;-77
2023/01/23 04:30:51;;;;;;;12.68;6.93;;;2.80;99.80;;;;;;6249389;22;20073;-77
2023/01/23 04:33:27;;;;;;;12.25;6.35;;;2.80;99.80;;;;;;6180648;22;20026;-76
2023/01/23 04:36:02;;;;;;;11.93;6.32;;;2.80;99.80;;;;;;6249634;22;20047;-77
2023/01/23 04:38:30;;;;;;;11.73;5.85;;;2.80;99.80;;;;;;6224952;22;20019;-77
2023/01/23 04:41:18;;;;;;;12.60;6.40;;;2.80;99.80;;;;;;6249693;22;20046;-77
2023/01/23 04:43:45;;;;;;;10.35;4.90;;;2.80;99.80;;;;;;6249533;22;20445;-77
2023/01/23 04:46:13;;;;;;;9.75;5.65;;;2.80;99.80;;;;;;6224214;22;20024;-77
2023/01/23 04:49:00;;;;;;;10.60;5.73;;;2.80;99.80;;;;;;6228982;22;20019;-76
2023/01/23 04:51:27;;;;;;;11.55;6.00;;;2.80;99.80;;;;;;6224235;22;20020;-76
2023/01/23 04:53:55;;;;;;;9.55;4.93;;;2.80;99.80;;;;;;6199636;22;20019;-78
2023/01/23 04:56:22;;;;;;;9.27;4.70;;;2.80;99.80;;;;;;6199488;22;20342;-78
2023/01/23 04:58:53;;;;;;;11.50;6.45;;;2.90;99.80;;;;;;6225115;22;20070;-79
2023/01/23 05:01:22;;;;;;;9.05;5.25;;;2.80;99.80;;;;;;6200006;22;20438;-79
2023/01/23 05:03:56;;;;;;;11.65;5.97;;;2.80;99.80;;;;;;6225516;22;20020;-79
2023/01/23 05:06:23;;;;;;;14.63;6.30;;;2.80;99.80;;;;;;6199285;22;20654;-79
2023/01/23 05:08:54;;;;;;;10.57;5.72;;;2.80;99.80;;;;;;6176923;22;20019;-79
2023/01/23 05:11:29;;;;;;;12.05;5.70;;;2.80;99.80;;;;;;6226081;22;20012;-79
2023/01/23 05:13:57;;;;;;;11.83;5.77;;;2.80;99.80;;;;;;6175043;22;20400;-79
2023/01/23 05:16:24;;;;;;;13.18;5.90;;;2.80;99.90;;;;;;6199629;22;20019;-80
2023/01/23 05:19:10;;;;;;;11.40;5.30;;;2.80;99.80;;;;;;6232242;22;20106;-78
2023/01/23 05:21:38;;;;;;;10.53;5.60;;;2.80;99.80;;;;;;6199586;22;20023;-79
2023/01/23 05:24:09;;;;;;;10.20;5.47;;;2.90;99.80;;;;;;6200451;22;20026;-79
2023/01/23 05:26:36;;;;;;;13.40;7.28;;;2.80;99.80;;;;;;6224070;22;20635;-79
2023/01/23 05:29:04;;;;;;;12.75;6.72;;;2.80;99.80;;;;;;6224207;22;20106;-79
2023/01/23 05:31:34;;;;;;;12.60;6.23;;;2.80;99.80;;;;;;6224554;22;20016;-79
2023/01/23 05:34:24;;;;;;;10.47;4.97;;;2.80;99.80;;;;;;6214052;22;20095;-78
2023/01/23 05:36:51;;;;;;;9.10;5.77;;;2.90;99.90;;;;;;6224040;22;20054;-78
2023/01/23 05:39:21;;;;;;;14.27;6.80;;;2.90;99.90;;;;;;6224701;22;20016;-79
2023/01/23 05:41:48;;;;;;;11.67;5.60;;;2.90;99.90;;;;;;6249130;22;20023;-79
2023/01/23 05:44:47;;;;;;;11.30;5.13;;;2.90;99.90;;;;;;6212617;22;20024;-79
2023/01/23 05:47:26;;;;;;;11.60;5.80;;;2.90;99.90;;;;;;6227066;22;20024;-79
2023/01/23 05:49:54;;;;;;;9.93;5.30;;;2.90;99.90;;;;;;6226188;22;20023;-79
2023/01/23 05:52:25;;;;;;;12.93;5.00;;;2.90;99.90;;;;;;6226592;22;20453;-79
2023/01/23 05:54:52;;;;;;;11.63;5.95;;;2.90;99.90;;;;;;6226065;22;20515;-79
2023/01/23 05:57:25;;;;;;;12.15;5.45;;;2.90;99.90;;;;;;6201192;22;20023;-79
2023/01/23 06:00:12;;;;;;;12.48;5.72;;;2.90;99.90;;;;;;6234752;22;20038;-79
2023/01/23 06:02:58;;;;;;;10.30;5.05;;;2.90;99.90;;;;;;6254669;22;20030;-79
2023/01/23 06:05:44;;;;;;;10.40;5.10;;;2.90;99.90;;;;;;6208983;22;20061;-79
2023/01/23 06:08:16;;;;;;;10.45;4.95;;;2.90;99.90;;;;;;6179203;22;20032;-79
2023/01/23 06:10:43;;;;;;;10.57;5.35;;;2.90;99.90;;;;;;6176480;22;20043;-80
2023/01/23 06:13:11;;;;;;;10.40;5.45;;;2.90;99.90;;;;;;6201498;22;20023;-81
2023/01/23 06:15:39;;;;;;;13.95;5.82;;;2.90;99.90;;;;;;6201140;22;20098;-82
2023/01/23 06:18:10;;;;;;;8.30;4.32;;;3.00;99.90;;;;;;6202978;22;20021;-81
2023/01/23 06:20:38;;;;;;;11.43;5.50;;;2.90;99.90;;;;;;6225809;22;20051;-81
2023/01/23 06:23:05;;;;;;;11.55;5.15;;;3.00;99.90;;;;;;6225969;22;20360;-78
2023/01/23 06:25:32;;;;;;;12.50;7.82;;;3.00;99.90;;;;;;6201205;22;20019;-80
2023/01/23 06:28:03;;;;;;;11.73;6.28;;;3.00;99.90;;;;;;6202242;22;20020;-79
2023/01/23 06:30:33;;;;;;;11.82;7.25;;;2.90;99.80;;;;;;6250043;22;20073;-85
2023/01/23 06:33:00;;;;;;;11.70;6.20;;;3.00;99.90;;;;;;6225697;22;20027;-84
2023/01/23 06:35:38;;;;;;;12.23;5.68;;;3.00;99.90;;;;;;6205653;22;20027;-80
2023/01/23 06:38:06;;;;;;;13.77;6.50;;;3.00;99.90;;;;;;6201342;22;20069;-80
2023/01/23 06:40:35;;;;;;;13.05;6.28;;;3.00;99.90;;;;;;6201440;22;20354;-79
2023/01/23 06:43:20;;;;;;;12.32;6.88;;;3.00;99.90;;;;;;6229386;22;20019;-80
2023/01/23 06:45:50;;;;;;;15.13;7.60;;;3.00;99.90;;;;;;6226365;22;20019;-80
2023/01/23 06:48:18;;;;;;;16.23;7.97;;;3.00;99.80;;;;;;6225783;22;20293;-81
2023/01/23 06:50:46;;;;;;;16.77;8.30;;;3.00;99.80;;;;;;6201148;22;20016;-80
2023/01/23 06:53:15;;;;;;;14.10;7.20;;;3.00;99.80;;;;;;6225510;22;20024;-80
2023/01/23 06:55:44;;;;;;;16.27;8.65;;;3.00;99.90;;;;;;6201659;22;20331;-80
2023/01/23 06:58:12;;;;;;;18.33;8.55;;;3.00;99.90;;;;;;6225692;22;20020;-80
2023/01/23 07:00:43;;;;;;;14.45;7.53;;;3.00;99.90;;;;;;6200333;22;20054;-80
2023/01/23 07:03:16;;;;;;;14.32;8.02;;;3.00;99.90;;;;;;6227223;22;20396;-80
2023/01/23 07:05:44;;;;;;;13.13;7.25;;;3.00;99.90;;;;;;6201265;22;20480;-80
2023/01/23 07:08:11;;;;;;;12.88;6.65;;;3.00;99.90;;;;;;6225362;22;20073;-80
2023/01/23 07:10:38;;;;;;;12.27;6.22;;;3.00;99.90;;;;;;6225194;22;20020;-80
2023/01/23 07:13:10;;;;;;;14.27;6.35;;;3.00;99.90;;;;;;6200999;22;20449;-80
2023/01/23 07:15:37;;;;;;;10.20;6.00;;;3.00;99.90;;;;;;6225648;22;20028;-81
2023/01/23 07:18:07;;;;;;;10.65;6.75;;;3.00;99.90;;;;;;6226175;22;20050;-80
2023/01/23 07:20:35;;;;;;;12.40;7.13;;;3.10;99.90;;;;;;6200753;22;20400;-80
2023/01/23 07:23:03;;;;;;;11.40;6.70;;;3.10;99.90;;;;;;6200821;22;20436;-80
2023/01/23 07:25:31;;;;;;;13.07;7.60;;;3.00;99.80;;;;;;6201189;22;20019;-80
2023/01/23 07:27:58;;;;;;;13.73;6.80;;;3.10;99.90;;;;;;6225786;22;20019;-80
2023/01/23 07:30:25;;;;;;;13.17;7.17;;;3.00;99.80;;;;;;6225261;22;20081;-80
2023/01/23 07:32:56;;;;;;;12.60;7.07;;;3.10;99.90;;;;;;6250195;22;20020;-81
2023/01/23 07:35:24;;;;;;;13.53;6.50;;;3.10;99.90;;;;;;6250340;22;20039;-81
2023/01/23 07:37:51;;;;;;;12.57;7.30;;;3.10;99.90;;;;;;6225333;22;20432;-81
2023/01/23 07:40:21;;;;;;;13.13;6.80;;;3.10;99.90;;;;;;6226021;22;20047;-81
2023/01/23 07:42:49;;;;;;;12.37;7.17;;;3.10;99.90;;;;;;6200892;22;20346;-81
2023/01/23 07:45:17;;;;;;;13.63;7.60;;;3.10;99.90;;;;;;6225375;22;20319;-81
2023/01/23 07:47:44;;;;;;;12.93;7.07;;;3.10;99.80;;;;;;6200055;22;20089;-80
2023/01/23 07:50:12;;;;;;;17.30;8.00;;;3.10;99.80;;;;;;6225088;22;20019;-80
2023/01/23 07:52:39;;;;;;;16.33;7.80;;;3.10;99.80;;;;;;6224824;22;20400;-81
2023/01/23 07:55:06;;;;;;;13.55;7.25;;;3.10;99.80;;;;;;6225090;22;20023;-82
2023/01/23 07:57:34;;;;;;;14.43;7.23;;;3.10;99.90;;;;;;6224879;22;20335;-81
2023/01/23 08:00:01;;;;;;;14.70;7.73;;;3.10;99.80;;;;;;6200164;22;20019;-80
2023/01/23 08:02:38;;;;;;;12.65;6.28;;;3.20;99.90;;;;;;6206830;22;20108;-80
2023/01/23 08:05:06;;;;;;;13.50;6.00;;;3.10;99.80;;;;;;6175660;22;20399;-81
2023/01/23 08:07:33;;;;;;;12.73;6.90;;;3.20;99.80;;;;;;6200020;22;20019;-81
2023/01/23 08:10:01;;;;;;;13.23;6.30;;;3.20;99.80;;;;;;6175293;22;20026;-81
2023/01/23 08:12:28;;;;;;;13.73;7.43;;;3.20;99.90;;;;;;6224590;22;20070;-81
2023/01/23 08:14:54;;;;;;;13.18;7.43;;;3.20;99.80;;;;;;6199750;22;20015;-81
2023/01/23 08:17:21;;;;;;;13.10;7.07;;;3.30;99.80;;;;;;6224692;22;20508;-81
2023/01/23 08:19:50;;;;;;;14.00;7.75;;;3.30;99.80;;;;;;6225595;22;20016;-81
2023/01/23 08:22:17;;;;;;;11.80;7.25;;;3.30;99.80;;;;;;6250057;22;20023;-81
2023/01/23 08:24:45;;;;;;;10.90;5.60;;;3.30;99.80;;;;;;6250104;22;20022;-81
2023/01/23 08:27:12;;;;;;;10.70;6.05;;;3.30;99.80;;;;;;6199817;22;20442;-81
2023/01/23 08:29:39;;;;;;;10.48;6.35;;;3.30;99.80;;;;;;6199650;22;20023;-81
2023/01/23 08:32:06;;;;;;;15.30;6.43;;;3.40;99.80;;;;;;6224282;22;20097;-81
2023/01/23 08:34:33;;;;;;;12.70;6.78;;;3.40;99.70;;;;;;6199852;22;20015;-81
2023/01/23 08:37:00;;;;;;;11.48;6.05;;;3.40;99.70;;;;;;6224130;22;20023;-81
2023/01/23 08:39:27;;;;;;;11.45;6.43;;;3.40;99.70;;;;;;6224308;22;20016;-81
2023/01/23 08:41:54;;;;;;;10.63;5.57;;;3.40;99.70;;;;;;6199393;22;20077;-81
2023/01/23 08:44:25;;;;;;;10.98;6.45;;;3.40;99.70;;;;;;6174879;22;20026;-81
2023/01/23 08:46:52;;;;;;;12.60;7.00;;;3.50;99.70;;;;;;6200487;22;20396;-80
2023/01/23 08:49:20;;;;;;;12.50;6.97;;;3.50;99.70;;;;;;6249946;22;20023;-80
2023/01/23 08:51:50;;;;;;;13.10;7.15;;;3.50;99.70;;;;;;6199917;22;20442;-81
2023/01/23 08:54:17;;;;;;;11.00;6.72;;;3.50;99.70;;;;;;6224761;22;20019;-81
2023/01/23 08:56:44;;;;;;;10.35;5.88;;;3.50;99.60;;;;;;6199607;22;20023;-81
2023/01/23 08:59:11;;;;;;;15.25;6.45;;;3.60;99.70;;;;;;6224514;22;20015;-81
2023/01/23 09:01:38;;;;;;;13.77;7.18;;;3.60;99.60;;;;;;6224457;22;20023;-81
2023/01/23 09:04:06;;;;;;;15.60;7.82;;;3.60;99.60;;;;;;6199705;22;20110;-80
2023/01/23 09:06:33;;;;;;;15.40;7.70;;;3.70;99.50;;;;;;6224384;22;20024;-81
2023/01/23 09:09:00;;;;;;;13.93;7.60;;;3.60;99.50;;;;;;6199431;22;20027;-80
2023/01/23 09:11:27;;;;;;;15.63;7.57;;;3.60;99.50;;;;;;6199474;22;20064;-81
2023/01/23 09:13:54;;;;;;;12.43;6.20;;;3.60;99.50;;;;;;6199431;22;20464;-81
2023/01/23 09:16:21;;;;;;;12.00;7.07;;;3.70;99.50;;;;;;6199597;22;20074;-81
2023/01/23 09:18:48;;;;;;;12.52;7.38;;;3.80;99.50;;;;;;6200191;22;20094;-81
2023/01/23 09:21:16;;;;;;;10.98;6.13;;;3.80;99.50;;;;;;6276248;22;20015;-81
2023/01/23 09:23:43;;;;;;;15.00;6.97;;;3.80;99.40;;;;;;6249059;22;20514;-81
2023/01/23 09:26:12;;;;;;;12.90;6.80;;;3.80;99.40;;;;;;6198725;22;20027;-81
2023/01/23 09:28:41;;;;;;;12.57;7.53;;;3.80;99.70;;;;;;6224136;22;20421;-81
2023/01/23 09:31:11;;;;;;;13.75;8.07;;;3.80;99.40;;;;;;6199846;22;20016;-81
2023/01/23 09:33:39;;;;;;;11.02;6.35;;;3.90;99.40;;;;;;6223879;22;20101;-81
2023/01/23 09:36:07;;;;;;;11.43;6.45;;;3.90;99.40;;;;;;6224010;22;20024;-81
2023/01/23 09:38:35;;;;;;;13.75;6.68;;;3.90;99.30;;;;;;6198923;22;20019;-81
2023/01/23 09:41:31;;;;;;;11.63;6.43;;;3.90;99.30;;;;;;6248871;22;20086;-81
2023/01/23 09:44:24;;;;;;;13.52;6.80;;;3.90;99.30;;;;;;6193520;22;20031;-82
2023/01/23 09:47:01;;;;;;;15.35;6.78;;;4.00;99.30;;;;;;6208167;22;20112;-81
2023/01/23 09:49:46;;;;;;;14.40;6.93;;;4.00;99.50;;;;;;6248720;22;20022;-81
2023/01/23 09:52:20;;;;;;;11.40;5.97;;;4.00;99.30;;;;;;6248954;22;20050;-81
2023/01/23 09:54:52;;;;;;;12.10;5.80;;;4.10;99.30;;;;;;6224049;22;20019;-81
2023/01/23 09:57:28;;;;;;;15.55;7.72;;;4.10;99.20;;;;;;6224906;22;20023;-81
2023/01/23 10:00:05;;;;;;;16.02;8.20;;;4.10;99.20;;;;;;6224093;22;20016;-81
2023/01/23 10:02:33;;;;;;;12.65;6.95;;;4.10;99.20;;;;;;6224420;22;20115;-81
2023/01/23 10:05:03;;;;;;;14.45;7.80;;;4.10;99.20;;;;;;6224048;22;20090;-81
2023/01/23 10:07:55;;;;;;;14.40;7.20;;;4.10;99.20;;;;;;6175641;22;20081;-80
2023/01/23 10:10:41;;;;;;;13.38;7.20;;;4.10;99.10;;;;;;6224030;22;20024;-81
2023/01/23 10:13:33;;;;;;;14.30;7.03;;;4.20;99.10;;;;;;6249292;22;20103;-80
2023/01/23 10:16:21;;;;;;;13.18;6.80;;;4.20;99.10;;;;;;6249390;22;20083;-80
2023/01/23 10:19:15;;;;;;;13.75;7.07;;;4.20;99.10;;;;;;6223887;22;20441;-80
2023/01/23 10:21:59;;;;;;;11.65;6.13;;;4.20;99.10;;;;;;6248672;22;20077;-80
2023/01/23 10:24:35;;;;;;;14.18;6.43;;;4.30;99.10;;;;;;6223546;22;20028;-79
2023/01/23 10:27:19;;;;;;;11.13;5.68;;;4.30;99.00;;;;;;6248853;22;20027;-80
2023/01/23 10:29:55;;;;;;;9.70;5.07;;;4.40;99.00;;;;;;6248711;22;20030;-80
2023/01/23 10:32:28;;;;;;;12.75;5.70;;;4.40;99.00;;;;;;6223542;22;20491;-81
2023/01/23 10:35:00;;;;;;;8.55;4.38;;;4.40;99.00;;;;;;6225108;22;20019;-81
2023/01/23 10:37:56;;;;;;;9.45;5.13;;;4.50;99.30;;;;;;6225701;22;20574;-81
2023/01/23 10:43:15;;;;;;;13.32;6.90;;;4.60;98.90;;;;;;6208217;22;20023;-81
2023/01/23 10:45:45;;;;;;;10.85;5.38;;;4.60;98.80;;;;;;6250394;22;20046;-81
2023/01/23 10:48:41;;;;;;;12.68;7.20;;;4.70;98.80;;;;;;6250066;22;20094;-80
2023/01/23 10:51:45;;;;;;;11.60;5.32;;;4.70;98.80;;;;;;6209435;22;20019;-81
2023/01/23 10:54:27;;;;;;;12.38;6.50;;;4.70;98.70;;;;;;6164943;22;20070;-81
2023/01/23 10:57:08;;;;;;;12.75;6.53;;;4.80;98.70;;;;;;6226288;22;20042;-82
2023/01/23 10:59:38;;;;;;;11.88;6.93;;;4.90;98.70;;;;;;6250876;22;20391;-81
2023/01/23 11:02:14;;;;;;;12.07;6.40;;;4.90;98.60;;;;;;6226013;22;20020;-81
2023/01/23 11:04:45;;;;;;;13.02;6.20;;;4.90;98.50;;;;;;6225935;22;20023;-81
2023/01/23 11:07:13;;;;;;;9.55;5.80;;;4.90;98.60;;;;;;6225615;22;20027;-80
2023/01/23 11:10:08;;;;;;;14.75;7.68;;;4.90;98.60;;;;;;6225969;22;20027;-78
2023/01/23 11:12:47;;;;;;;15.02;7.30;;;5.00;98.50;;;;;;6225184;22;20065;-78
2023/01/23 11:15:26;;;;;;;12.05;7.20;;;5.00;98.50;;;;;;6225271;22;20070;-78
2023/01/23 11:17:56;;;;;;;13.75;8.05;;;5.00;98.50;;;;;;6225070;22;20540;-76
2023/01/23 11:20:27;;;;;;;18.25;10.38;;;5.00;98.50;;;;;;6277344;22;20019;-80
2023/01/23 11:23:09;;;;;;;14.88;8.40;;;5.00;98.40;;;;;;6225193;22;20027;-78
2023/01/23 11:25:40;;;;;;;16.48;8.77;;;5.00;98.40;;;;;;6249984;22;20028;-79
2023/01/23 11:28:26;;;;;;;14.77;8.13;;;5.00;98.40;;;;;;6250133;22;20077;-78
2023/01/23 11:31:20;;;;;;;13.80;7.72;;;5.10;98.40;;;;;;6250173;22;20445;-80
2023/01/23 11:33:54;;;;;;;14.25;7.72;;;5.10;98.30;;;;;;6225359;22;20102;-80
2023/01/23 11:36:48;;;;;;;13.73;6.45;;;5.20;98.30;;;;;;6225116;22;20023;-79
2023/01/23 11:39:24;;;;;;;15.00;8.68;;;5.20;98.20;;;;;;6277355;22;20442;-79
2023/01/23 11:41:52;;;;;;;14.90;8.43;;;5.20;98.20;;;;;;6224801;22;20024;-80
2023/01/23 11:44:21;;;;;;;15.60;8.65;;;5.10;98.20;;;;;;6199718;22;20027;-79
2023/01/23 11:47:24;;;;;;;13.30;7.65;;;5.10;98.30;;;;;;6249052;22;20077;-80
2023/01/23 11:50:16;;;;;;;14.57;8.32;;;5.10;98.20;;;;;;6224368;22;20024;-81
2023/01/23 11:52:48;;;;;;;14.05;7.97;;;5.00;98.30;;;;;;6250254;22;20015;-79
2023/01/23 11:55:37;;;;;;;13.57;7.25;;;5.00;98.30;;;;;;6224197;22;20077;-82
2023/01/23 11:58:53;;;;;;;12.02;7.25;;;5.00;98.30;;;;;;6225007;22;20505;-82
2023/01/23 12:02:02;;;;;;;12.82;7.70;;;5.00;98.30;;;;;;6119387;22;20405;-80
2023/01/23 12:05:01;;;;;;;13.05;7.95;;;5.00;98.30;;;;;;6249267;22;20042;-77
2023/01/23 12:07:39;;;;;;;16.73;9.00;;;4.90;98.20;;;;;;6249392;22;20073;-80
2023/01/23 12:10:28;;;;;;;15.73;7.97;;;4.90;98.30;;;;;;6224638;22;20066;-79
2023/01/23 12:13:10;;;;;;;13.52;7.57;;;4.90;98.20;;;;;;6224277;22;20016;-79
2023/01/23 12:16:06;;;;;;;13.50;7.40;;;4.90;98.30;;;;;;6224353;22;20066;-79
2023/01/23 12:19:10;;;;;;;12.05;7.22;;;4.90;98.20;;;;;;6224339;22;20026;-79
2023/01/23 12:21:55;;;;;;;12.90;7.47;;;5.00;98.20;;;;;;6249589;22;20020;-79
2023/01/23 12:24:43;;;;;;;11.60;6.50;;;5.00;98.20;;;;;;6224292;22;20020;-79
2023/01/23 12:27:56;;;;;;;12.80;7.10;;;5.00;98.20;;;;;;6224114;22;20020;-78
2023/01/23 12:31:04;;;;;;;12.75;6.78;;;5.10;98.10;;;;;;6099780;23;20029;-81
2023/01/23 12:34:01;;;;;;;12.30;6.68;;;5.10;98.10;;;;;;6158368;23;20021;-79
2023/01/23 12:36:54;;;;;;;12.10;6.05;;;5.20;98.10;;;;;;6182395;23;20056;-79
2023/01/23 12:39:40;;;;;;;12.60;6.50;;;5.20;98.10;;;;;;6253625;22;20026;-79
2023/01/23 12:42:18;;;;;;;11.02;5.95;;;5.20;98.00;;;;;;6223916;22;20023;-77
2023/01/23 12:45:26;;;;;;;12.60;6.82;;;5.20;98.00;;;;;;6249300;22;20020;-79
2023/01/23 12:48:13;;;;;;;13.50;8.10;;;5.30;98.20;;;;;;6249420;22;20016;-79
2023/01/23 12:50:43;;;;;;;15.38;8.23;;;5.20;97.90;;;;;;6223465;22;20062;-80
2023/01/23 12:53:17;;;;;;;14.07;8.38;;;5.20;97.90;;;;;;6224039;22;20019;-79
2023/01/23 12:56:05;;;;;;;15.40;8.48;;;5.30;97.90;;;;;;6224474;22;20020;-81
2023/01/23 12:58:39;;;;;;;12.57;8.23;;;5.30;97.80;;;;;;6249448;22;20098;-81
2023/01/23 13:01:36;;;;;;;16.50;9.35;;;5.30;97.80;;;;;;6224433;22;20042;-79
2023/01/23 13:04:24;;;;;;;14.43;7.78;;;5.30;97.80;;;;;;6224605;22;20067;-79
2023/01/23 13:06:57;;;;;;;14.98;7.80;;;5.40;97.70;;;;;;6249838;22;20012;-78
2023/01/23 13:09:56;;;;;;;14.27;8.13;;;5.40;97.70;;;;;;6224168;22;20468;-79
2023/01/23 13:12:27;;;;;;;10.93;6.40;;;5.40;97.70;;;;;;6249614;22;20500;-78
2023/01/23 13:15:24;;;;;;;11.52;6.32;;;5.50;97.70;;;;;;6249247;22;20402;-79
2023/01/23 13:18:22;;;;;;;11.35;5.85;;;5.50;97.70;;;;;;6226962;22;20027;-82
2023/01/23 13:23:42;;;;;;;12.23;6.20;;;5.60;97.70;;;;;;6276290;22;20020;-82
2023/01/23 13:26:15;;;;;;;10.18;5.20;;;5.50;97.60;;;;;;6199255;22;20019;-82
2023/01/23 13:28:52;;;;;;;11.02;6.00;;;5.50;97.60;;;;;;6224189;22;20031;-81
2023/01/23 13:31:45;;;;;;;10.40;5.25;;;5.40;97.60;;;;;;6224260;22;20047;-82
2023/01/23 13:34:15;;;;;;;10.73;5.72;;;5.30;97.70;;;;;;6224153;22;20376;-80